Time;durP1;ratioP1;P1;durP2;ratioP2;P2;SDS_P1;SDS_P2;PMS_P1;PMS_P2;Temp;Humidity;BMP_temperature;BMP_pressure;BME280_temperature;BME280_humidity;BME280_pressure;Samples;Min_cycle;Max_cycle;Signal;HPM_P1;HPM_P2
2024/03/08 00:02:14;;;;;;;23.33;9.65;;;4.30;99.90;;;;;;4992263;28;20061;-75
2024/03/08 00:04:40;;;;;;;23.85;8.45;;;4.20;99.90;;;;;;5004234;28;20061;-74
2024/03/08 00:07:06;;;;;;;24.92;8.90;;;4.30;99.90;;;;;;4995914;28;20403;-75
2024/03/08 00:09:32;;;;;;;21.23;9.48;;;4.30;99.90;;;;;;5013212;28;20030;-74
2024/03/08 00:11:57;;;;;;;20.98;7.82;;;4.30;99.90;;;;;;4999509;28;20113;-73
2024/03/08 00:14:23;;;;;;;23.50;9.70;;;4.20;99.90;;;;;;5012093;28;20062;-74
2024/03/08 00:16:49;;;;;;;22.23;9.13;;;4.20;99.90;;;;;;5004246;28;20562;-74
2024/03/08 00:19:14;;;;;;;26.33;9.95;;;4.20;99.90;;;;;;4997235;28;20124;-75
2024/03/08 00:21:41;;;;;;;27.52;9.07;;;4.20;99.90;;;;;;5001796;28;20040;-73
2024/03/08 00:24:07;;;;;;;27.33;10.38;;;4.20;99.90;;;;;;4997859;28;20041;-75
2024/03/08 00:26:33;;;;;;;22.80;9.35;;;4.20;99.90;;;;;;5021930;28;20053;-75
2024/03/08 00:28:58;;;;;;;31.25;10.77;;;4.20;99.90;;;;;;5016234;28;20368;-74
2024/03/08 00:31:24;;;;;;;20.35;9.00;;;4.10;99.90;;;;;;5013969;28;20037;-75
2024/03/08 00:33:50;;;;;;;29.10;10.25;;;4.10;99.90;;;;;;5016976;28;20069;-75
2024/03/08 00:36:16;;;;;;;24.73;9.05;;;4.10;99.90;;;;;;5016842;28;20049;-74
2024/03/08 00:38:42;;;;;;;18.73;7.80;;;4.10;99.90;;;;;;5001609;28;20438;-74
2024/03/08 00:41:08;;;;;;;25.25;8.75;;;4.10;99.90;;;;;;5008201;28;20042;-74
2024/03/08 00:43:34;;;;;;;22.92;8.77;;;4.10;99.90;;;;;;5008005;28;20049;-74
2024/03/08 00:46:01;;;;;;;21.90;9.32;;;4.10;99.90;;;;;;5011103;28;20045;-74
2024/03/08 00:48:26;;;;;;;24.20;9.10;;;4.00;99.90;;;;;;5004379;28;20036;-73
2024/03/08 00:50:52;;;;;;;25.65;10.02;;;4.00;99.90;;;;;;4998444;28;20037;-75
2024/03/08 00:53:18;;;;;;;30.17;9.30;;;4.00;99.90;;;;;;5012394;28;20042;-75
2024/03/08 00:55:46;;;;;;;22.95;9.45;;;4.00;99.90;;;;;;5002361;28;20448;-74
2024/03/08 00:58:12;;;;;;;26.40;9.65;;;4.00;99.90;;;;;;5012126;28;20045;-73
2024/03/08 01:00:38;;;;;;;22.02;8.77;;;4.00;99.90;;;;;;5002317;28;20060;-74
2024/03/08 01:03:04;;;;;;;23.85;9.10;;;4.00;99.90;;;;;;5001778;28;20025;-74
2024/03/08 01:05:30;;;;;;;27.00;9.85;;;3.90;99.90;;;;;;5020525;28;20030;-75
2024/03/08 01:07:56;;;;;;;22.60;9.30;;;3.90;99.90;;;;;;5002028;28;20059;-74
2024/03/08 01:10:21;;;;;;;21.65;8.52;;;3.90;99.90;;;;;;4998676;28;20042;-74
2024/03/08 01:12:47;;;;;;;21.80;8.35;;;3.90;99.90;;;;;;5019918;28;20048;-74
2024/03/08 01:15:12;;;;;;;23.30;8.63;;;3.90;99.90;;;;;;5014951;28;20056;-74
2024/03/08 01:17:38;;;;;;;19.40;8.93;;;3.80;99.90;;;;;;5014559;28;20034;-74
2024/03/08 01:20:05;;;;;;;19.75;8.32;;;3.90;99.90;;;;;;5013232;28;20248;-73
2024/03/08 01:22:31;;;;;;;20.70;9.00;;;3.90;99.90;;;;;;4995616;28;20072;-74
2024/03/08 01:24:57;;;;;;;22.10;9.02;;;3.90;99.90;;;;;;4995885;28;20033;-74
2024/03/08 01:27:22;;;;;;;24.73;8.18;;;3.80;99.90;;;;;;5014713;28;20122;-75
2024/03/08 01:29:48;;;;;;;22.05;9.23;;;3.80;99.90;;;;;;5002670;28;20041;-75
2024/03/08 01:32:14;;;;;;;21.20;9.15;;;3.80;99.90;;;;;;5018912;28;20137;-74
2024/03/08 01:34:40;;;;;;;25.38;8.55;;;3.80;99.90;;;;;;5008311;28;20038;-75
2024/03/08 01:37:06;;;;;;;23.50;9.50;;;3.80;99.90;;;;;;5027582;28;20034;-73
2024/03/08 01:39:32;;;;;;;21.98;9.02;;;3.70;99.90;;;;;;5021632;28;20133;-74
2024/03/08 01:41:58;;;;;;;26.88;9.82;;;3.70;99.90;;;;;;5000669;28;20040;-77
2024/03/08 01:44:23;;;;;;;23.42;8.65;;;3.70;99.90;;;;;;5001684;28;20251;-73
2024/03/08 01:46:52;;;;;;;19.00;9.00;;;3.60;99.90;;;;;;5022396;28;20044;-74
2024/03/08 01:49:18;;;;;;;21.90;8.85;;;3.60;99.90;;;;;;5023607;28;20030;-74
2024/03/08 01:51:43;;;;;;;20.23;9.23;;;3.60;99.90;;;;;;5022121;28;20418;-75
2024/03/08 01:54:10;;;;;;;22.60;8.27;;;3.60;99.90;;;;;;5001329;28;20077;-74
2024/03/08 01:56:38;;;;;;;25.38;9.70;;;3.60;99.90;;;;;;5009444;28;20064;-74
2024/03/08 01:59:04;;;;;;;25.10;8.95;;;3.60;99.90;;;;;;5006875;28;20037;-74
2024/03/08 02:01:30;;;;;;;17.40;8.23;;;3.50;99.90;;;;;;4997681;28;20196;-75
2024/03/08 02:03:55;;;;;;;24.90;9.70;;;3.50;99.90;;;;;;5023767;28;20061;-75
2024/03/08 02:06:21;;;;;;;24.40;8.15;;;3.50;99.90;;;;;;5016489;28;20115;-75
2024/03/08 02:08:47;;;;;;;24.98;9.18;;;3.40;99.90;;;;;;5027840;28;20490;-73
2024/03/08 02:11:13;;;;;;;23.02;10.23;;;3.40;99.90;;;;;;5020365;28;20744;-75
2024/03/08 02:13:38;;;;;;;27.52;9.90;;;3.30;99.90;;;;;;5027477;28;20065;-73
2024/03/08 02:16:05;;;;;;;30.58;10.23;;;3.40;99.90;;;;;;5004048;28;20033;-75
2024/03/08 02:18:34;;;;;;;22.00;10.32;;;3.40;99.90;;;;;;5025460;28;20044;-74
2024/03/08 02:21:01;;;;;;;24.50;8.82;;;3.40;99.90;;;;;;5003051;28;20413;-74
2024/03/08 02:23:26;;;;;;;23.85;9.80;;;3.30;99.90;;;;;;5017248;28;20102;-74
2024/03/08 02:25:53;;;;;;;24.00;9.65;;;3.30;99.90;;;;;;5036998;28;20036;-74
2024/03/08 02:28:19;;;;;;;24.08;10.07;;;3.30;99.90;;;;;;4980268;28;20460;-76
2024/03/08 02:30:50;;;;;;;20.10;9.05;;;3.30;99.90;;;;;;5013195;28;20079;-73
2024/03/08 02:33:16;;;;;;;;;;;3.30;99.90;;;;;;5024368;28;20038;-74
2024/03/08 02:35:45;;;;;;;23.40;8.93;;;3.20;99.90;;;;;;5027332;28;19940;-75
2024/03/08 02:38:18;;;;;;;22.90;8.93;;;3.20;99.90;;;;;;5024263;28;20120;-74
2024/03/08 02:40:45;;;;;;;20.17;9.00;;;3.20;99.90;;;;;;5005096;28;20117;-76
2024/03/08 02:43:12;;;;;;;22.95;9.38;;;3.20;99.90;;;;;;5008672;28;20031;-75
2024/03/08 02:45:38;;;;;;;25.25;9.32;;;3.10;99.90;;;;;;5008097;28;20042;-75
2024/03/08 02:48:04;;;;;;;25.70;9.48;;;3.10;99.90;;;;;;5011185;28;20041;-75
2024/03/08 02:50:29;;;;;;;22.75;9.57;;;3.10;99.90;;;;;;4998847;28;20099;-73
2024/03/08 02:52:56;;;;;;;19.60;7.82;;;3.10;99.90;;;;;;5005839;28;20042;-76
2024/03/08 02:55:22;;;;;;;21.73;8.93;;;3.00;99.90;;;;;;5006499;28;20069;-74
2024/03/08 02:57:47;;;;;;;24.25;8.68;;;3.10;99.90;;;;;;5020352;28;20053;-74
2024/03/08 03:00:13;;;;;;;27.55;9.73;;;3.10;99.90;;;;;;5007636;28;20041;-74
2024/03/08 03:02:39;;;;;;;22.55;8.55;;;3.10;99.90;;;;;;5015053;28;20044;-74
2024/03/08 03:05:06;;;;;;;26.55;10.07;;;3.00;99.90;;;;;;5005562;28;20037;-75
2024/03/08 03:07:35;;;;;;;31.27;10.15;;;3.00;99.90;;;;;;5001995;28;20050;-75
2024/03/08 03:10:01;;;;;;;21.17;9.27;;;3.00;99.90;;;;;;5003801;28;20026;-75
2024/03/08 03:12:31;;;;;;;21.02;9.38;;;3.00;99.90;;;;;;5032172;28;20103;-74
2024/03/08 03:14:59;;;;;;;19.57;7.93;;;3.00;99.90;;;;;;5033813;28;20034;-78
2024/03/08 03:17:26;;;;;;;22.30;10.25;;;3.00;99.90;;;;;;5021200;28;20034;-76
2024/03/08 03:19:52;;;;;;;21.20;9.43;;;2.90;99.90;;;;;;5035913;28;20420;-76
2024/03/08 03:22:18;;;;;;;22.85;9.27;;;3.00;99.90;;;;;;5028201;28;20034;-75
2024/03/08 03:24:46;;;;;;;19.88;9.10;;;2.90;99.90;;;;;;5008020;28;20037;-74
2024/03/08 03:27:12;;;;;;;25.88;9.48;;;2.90;99.90;;;;;;5004006;28;20034;-74
2024/03/08 03:29:40;;;;;;;22.25;9.77;;;2.90;99.90;;;;;;4994872;28;20412;-75
2024/03/08 03:32:07;;;;;;;21.77;9.15;;;2.90;99.90;;;;;;5010902;28;20035;-74
2024/03/08 03:34:35;;;;;;;21.33;8.48;;;2.90;99.90;;;;;;5018760;28;20049;-74
2024/03/08 03:37:02;;;;;;;21.55;9.18;;;2.90;99.90;;;;;;5019279;28;20056;-75
2024/03/08 03:39:31;;;;;;;19.58;8.68;;;2.90;99.90;;;;;;5015093;28;20033;-74
2024/03/08 03:41:57;;;;;;;20.92;9.25;;;2.80;99.90;;;;;;5017462;28;20513;-74
2024/03/08 03:44:23;;;;;;;24.95;9.85;;;2.80;99.90;;;;;;5018166;28;20455;-75
2024/03/08 03:46:50;;;;;;;24.58;9.10;;;2.80;99.90;;;;;;5021268;28;20048;-75
2024/03/08 03:49:16;;;;;;;20.33;8.88;;;2.80;99.90;;;;;;5006807;28;20042;-74
2024/03/08 03:51:42;;;;;;;22.00;9.40;;;2.80;99.90;;;;;;5018071;28;20117;-74
2024/03/08 03:54:08;;;;;;;23.90;9.73;;;2.70;99.90;;;;;;5000668;28;20033;-74
2024/03/08 03:56:33;;;;;;;23.55;9.63;;;2.70;99.90;;;;;;5020061;28;20043;-74
2024/03/08 03:58:59;;;;;;;20.25;10.45;;;2.70;99.90;;;;;;5018137;28;20102;-74
2024/03/08 04:01:25;;;;;;;19.27;8.85;;;2.70;99.90;;;;;;5016700;28;20108;-75
2024/03/08 04:03:50;;;;;;;25.60;10.30;;;2.70;99.90;;;;;;5019888;28;20034;-74
2024/03/08 04:06:16;;;;;;;26.40;10.30;;;2.70;99.90;;;;;;5030517;28;20093;-74
2024/03/08 04:08:42;;;;;;;21.17;9.23;;;2.70;99.90;;;;;;5024340;28;20021;-75
2024/03/08 04:11:10;;;;;;;19.40;9.00;;;2.60;99.90;;;;;;5019784;28;20025;-75
2024/03/08 04:13:36;;;;;;;24.58;9.05;;;2.60;99.90;;;;;;5018581;28;20053;-74
2024/03/08 04:16:02;;;;;;;22.30;8.88;;;2.60;99.90;;;;;;5016099;28;20033;-74
2024/03/08 04:18:28;;;;;;;22.90;9.98;;;2.60;99.90;;;;;;4998706;28;20128;-75
2024/03/08 04:20:53;;;;;;;25.23;11.07;;;2.60;99.90;;;;;;5013472;28;20027;-74
2024/03/08 04:23:19;;;;;;;23.38;9.35;;;2.60;99.90;;;;;;5002303;28;20041;-74
2024/03/08 04:25:45;;;;;;;25.27;9.82;;;2.50;99.90;;;;;;5019522;28;20037;-74
2024/03/08 04:28:11;;;;;;;22.05;9.30;;;2.50;99.90;;;;;;5020608;28;20034;-74
2024/03/08 04:30:38;;;;;;;22.80;9.95;;;2.50;99.90;;;;;;5018830;28;20046;-74
2024/03/08 04:33:04;;;;;;;20.00;8.93;;;2.50;99.90;;;;;;5001740;28;20037;-74
2024/03/08 04:35:30;;;;;;;27.88;11.20;;;2.50;99.90;;;;;;5008968;28;20124;-74
2024/03/08 04:37:57;;;;;;;23.83;10.90;;;2.40;99.90;;;;;;5002454;28;20033;-74
2024/03/08 04:40:23;;;;;;;23.52;9.70;;;2.40;99.90;;;;;;5000580;28;20108;-74
2024/03/08 04:42:50;;;;;;;23.42;9.35;;;2.40;99.90;;;;;;5003479;28;20061;-74
2024/03/08 04:45:17;;;;;;;23.92;9.85;;;2.40;99.90;;;;;;5002082;28;20502;-74
2024/03/08 04:47:43;;;;;;;27.98;10.90;;;2.40;99.90;;;;;;4998262;28;20556;-74
2024/03/08 04:50:09;;;;;;;26.30;9.18;;;2.40;99.90;;;;;;5007407;28;20089;-74
2024/03/08 04:52:35;;;;;;;21.73;10.23;;;2.30;99.90;;;;;;4984589;28;20058;-74
2024/03/08 04:55:04;;;;;;;21.45;9.38;;;2.30;99.90;;;;;;5024710;28;20112;-75
2024/03/08 04:57:29;;;;;;;20.35;9.43;;;2.30;99.90;;;;;;5012782;28;20033;-75
2024/03/08 04:59:55;;;;;;;21.05;9.27;;;2.30;99.90;;;;;;5008191;28;20041;-74
2024/03/08 05:02:22;;;;;;;24.05;9.65;;;2.30;99.90;;;;;;5016771;28;20030;-74
2024/03/08 05:04:48;;;;;;;21.88;9.80;;;2.30;99.90;;;;;;5020743;28;20030;-73
2024/03/08 05:07:13;;;;;;;20.20;9.40;;;2.30;99.90;;;;;;5020662;28;20030;-73
2024/03/08 05:09:40;;;;;;;19.98;9.13;;;2.30;99.90;;;;;;5018878;28;20124;-74
2024/03/08 05:12:06;;;;;;;22.55;10.25;;;2.30;99.90;;;;;;4989023;28;20081;-74
2024/03/08 05:14:32;;;;;;;22.10;10.13;;;2.20;99.90;;;;;;5002498;28;20041;-73
2024/03/08 05:16:57;;;;;;;20.98;9.25;;;2.30;99.90;;;;;;5021524;28;20052;-74
2024/03/08 05:19:23;;;;;;;22.00;9.13;;;2.20;99.90;;;;;;5003926;28;20038;-74
2024/03/08 05:21:50;;;;;;;26.20;10.10;;;2.20;99.90;;;;;;5016321;28;20030;-75
2024/03/08 05:24:15;;;;;;;20.92;9.48;;;2.20;99.90;;;;;;5001207;28;20045;-74
2024/03/08 05:26:41;;;;;;;23.95;9.82;;;2.20;99.90;;;;;;5021805;28;20035;-74
2024/03/08 05:29:08;;;;;;;23.38;9.88;;;2.30;99.90;;;;;;5021990;28;20112;-75
2024/03/08 05:31:49;;;;;;;28.23;10.43;;;2.20;99.90;;;;;;4995232;28;20034;-73
2024/03/08 05:34:15;;;;;;;24.42;11.70;;;2.20;99.90;;;;;;5026441;28;20037;-75
2024/03/08 05:36:46;;;;;;;21.92;9.98;;;2.20;99.90;;;;;;5003633;28;20034;-74
2024/03/08 05:39:18;;;;;;;25.73;9.90;;;2.20;99.90;;;;;;5023853;28;20067;-74
2024/03/08 05:41:44;;;;;;;26.73;10.70;;;2.20;99.90;;;;;;5009741;28;20034;-73
2024/03/08 05:44:10;;;;;;;26.15;9.95;;;2.20;99.90;;;;;;5026973;28;20057;-73
2024/03/08 05:46:36;;;;;;;24.17;10.05;;;2.20;99.90;;;;;;5012463;28;20076;-75
2024/03/08 05:49:09;;;;;;;21.80;9.85;;;2.10;99.90;;;;;;5027520;28;20127;-74
2024/03/08 05:51:37;;;;;;;25.10;9.95;;;2.10;99.90;;;;;;5019311;28;20045;-74
2024/03/08 05:54:05;;;;;;;21.60;9.98;;;2.10;99.90;;;;;;5026531;28;20041;-74
2024/03/08 05:56:31;;;;;;;19.67;10.35;;;2.10;99.90;;;;;;5027297;28;20030;-75
2024/03/08 05:58:58;;;;;;;20.73;9.75;;;2.20;99.90;;;;;;5008036;28;20033;-74
2024/03/08 06:01:27;;;;;;;22.40;10.20;;;2.10;99.90;;;;;;5005696;28;20037;-73
2024/03/08 06:03:57;;;;;;;22.48;10.00;;;2.10;99.90;;;;;;5030621;28;20097;-73
2024/03/08 06:06:23;;;;;;;20.30;9.40;;;2.20;99.90;;;;;;5003224;28;20399;-74
2024/03/08 06:08:50;;;;;;;20.20;9.30;;;2.10;99.90;;;;;;5026678;28;20042;-76
2024/03/08 06:11:19;;;;;;;24.15;11.07;;;2.10;99.90;;;;;;5024411;28;20110;-74
2024/03/08 06:13:45;;;;;;;25.63;10.23;;;2.10;99.90;;;;;;5024706;28;20042;-74
2024/03/08 06:16:11;;;;;;;25.35;10.43;;;2.20;99.90;;;;;;5010374;28;20034;-75
2024/03/08 06:18:37;;;;;;;23.42;9.68;;;2.10;99.90;;;;;;5008289;28;20046;-74
2024/03/08 06:21:05;;;;;;;24.95;10.63;;;2.10;99.90;;;;;;5008232;28;20045;-74
2024/03/08 06:23:33;;;;;;;18.98;8.35;;;2.10;99.90;;;;;;5007408;28;20057;-75
2024/03/08 06:25:59;;;;;;;23.00;9.90;;;2.10;99.90;;;;;;5005290;28;20036;-74
2024/03/08 06:28:25;;;;;;;31.73;11.32;;;2.20;99.90;;;;;;5026887;28;20038;-74
2024/03/08 06:30:51;;;;;;;23.88;9.95;;;2.20;99.90;;;;;;5028861;28;20029;-74
2024/03/08 06:33:17;;;;;;;25.40;10.52;;;2.20;99.90;;;;;;5023951;28;20057;-74
2024/03/08 06:35:43;;;;;;;23.90;9.45;;;2.20;99.90;;;;;;5014791;28;20105;-76
2024/03/08 06:38:09;;;;;;;23.30;10.57;;;2.30;99.90;;;;;;5026333;28;20029;-75
2024/03/08 06:40:34;;;;;;;27.40;9.93;;;2.30;99.90;;;;;;5019140;28;20497;-74
2024/03/08 06:43:00;;;;;;;20.98;9.75;;;2.40;99.90;;;;;;4998704;28;20034;-74
2024/03/08 06:45:26;;;;;;;24.90;9.63;;;2.30;99.90;;;;;;5004448;28;20029;-74
2024/03/08 06:47:51;;;;;;;23.60;10.65;;;2.40;99.90;;;;;;5015886;28;20069;-74
2024/03/08 06:50:17;;;;;;;21.48;9.13;;;2.40;99.90;;;;;;5002231;28;20029;-74
2024/03/08 06:52:44;;;;;;;23.40;9.77;;;2.40;99.90;;;;;;5000083;28;20539;-74
2024/03/08 06:55:13;;;;;;;20.77;9.85;;;2.40;99.90;;;;;;5018423;28;20038;-74
2024/03/08 06:57:41;;;;;;;21.02;9.95;;;2.50;99.90;;;;;;5004027;28;20044;-74
2024/03/08 07:00:18;;;;;;;25.35;10.90;;;2.50;99.90;;;;;;4997937;28;20495;-74
2024/03/08 07:02:45;;;;;;;23.48;9.43;;;2.50;99.90;;;;;;4998555;28;20042;-74
2024/03/08 07:05:11;;;;;;;24.10;9.90;;;2.60;99.90;;;;;;5001516;28;20081;-75
2024/03/08 07:07:37;;;;;;;20.90;9.70;;;2.60;99.90;;;;;;5018108;28;20057;-74
2024/03/08 07:10:03;;;;;;;23.40;8.95;;;2.60;99.90;;;;;;5016886;28;20034;-75
2024/03/08 07:12:28;;;;;;;24.20;9.55;;;2.70;99.90;;;;;;4998602;28;20030;-76
2024/03/08 07:14:54;;;;;;;23.05;10.07;;;2.70;99.90;;;;;;5013224;28;20034;-76
2024/03/08 07:17:20;;;;;;;21.73;9.48;;;2.80;99.90;;;;;;5013920;28;20042;-74
2024/03/08 07:19:45;;;;;;;20.30;10.68;;;2.80;99.90;;;;;;5015685;28;20041;-74
2024/03/08 07:22:11;;;;;;;24.42;9.95;;;2.80;99.90;;;;;;5010525;28;20065;-76
2024/03/08 07:27:05;;;;;;;20.70;9.23;;;2.90;99.90;;;;;;5025362;28;20038;-76
2024/03/08 07:29:31;;;;;;;21.88;10.38;;;3.00;99.90;;;;;;5000431;28;20033;-76
2024/03/08 07:32:20;;;;;;;24.17;9.30;;;3.10;99.90;;;;;;4998949;28;20111;-76
2024/03/08 07:34:48;;;;;;;24.20;9.73;;;3.20;99.90;;;;;;4998082;28;20167;-75
2024/03/08 07:37:14;;;;;;;24.40;10.35;;;3.30;99.90;;;;;;4993988;28;20538;-76
2024/03/08 07:39:39;;;;;;;20.85;9.10;;;3.30;99.90;;;;;;5004246;28;20044;-75
2024/03/08 07:42:05;;;;;;;22.90;10.30;;;3.50;99.90;;;;;;5011540;28;20033;-75
2024/03/08 07:44:33;;;;;;;22.80;9.80;;;3.60;99.90;;;;;;5010993;28;20128;-74
2024/03/08 07:46:59;;;;;;;21.25;9.82;;;3.60;99.90;;;;;;4997262;28;20042;-77
2024/03/08 07:49:25;;;;;;;19.15;8.65;;;3.60;99.90;;;;;;5005975;28;20030;-74
2024/03/08 07:51:51;;;;;;;19.08;8.98;;;3.70;99.90;;;;;;5006159;28;20483;-77
2024/03/08 07:54:17;;;;;;;26.33;10.98;;;3.80;99.90;;;;;;5025840;28;20057;-75
2024/03/08 07:56:43;;;;;;;18.13;8.75;;;3.90;99.90;;;;;;5007263;28;20513;-78
2024/03/08 07:59:08;;;;;;;21.80;9.35;;;4.00;99.90;;;;;;5007929;28;20755;-76
2024/03/08 08:01:34;;;;;;;23.23;10.10;;;4.20;99.90;;;;;;5005474;28;20044;-75
2024/03/08 08:04:01;;;;;;;20.52;9.15;;;4.40;99.90;;;;;;5016560;28;20041;-75
2024/03/08 08:06:27;;;;;;;20.20;8.88;;;4.60;99.90;;;;;;4997299;28;20221;-77
2024/03/08 08:08:55;;;;;;;18.92;8.60;;;4.50;99.90;;;;;;5021692;28;20093;-74
2024/03/08 08:11:20;;;;;;;21.33;8.77;;;4.70;99.90;;;;;;5004119;28;20037;-74
2024/03/08 08:13:46;;;;;;;27.50;9.18;;;4.90;99.90;;;;;;5014752;28;20101;-74
2024/03/08 08:16:13;;;;;;;20.80;9.15;;;5.00;99.90;;;;;;4994097;28;20034;-74
2024/03/08 08:18:39;;;;;;;20.05;8.95;;;4.90;99.90;;;;;;5002917;28;20068;-75
2024/03/08 08:21:06;;;;;;;24.23;9.32;;;4.90;99.90;;;;;;4992298;28;20152;-75
2024/03/08 08:23:34;;;;;;;19.08;8.68;;;4.90;99.90;;;;;;5019647;28;20095;-76
2024/03/08 08:26:03;;;;;;;23.80;10.52;;;4.80;99.90;;;;;;5003143;28;20025;-76
2024/03/08 08:28:29;;;;;;;21.27;8.43;;;4.90;99.90;;;;;;4996810;28;20033;-75
2024/03/08 08:30:55;;;;;;;20.63;9.23;;;4.90;99.90;;;;;;4998305;28;20034;-76
2024/03/08 08:33:20;;;;;;;20.35;9.75;;;5.00;99.90;;;;;;4999768;28;20128;-76
2024/03/08 08:35:47;;;;;;;19.83;8.73;;;5.00;99.90;;;;;;5019796;28;20030;-74
2024/03/08 08:38:13;;;;;;;21.30;9.25;;;5.10;99.90;;;;;;5016372;28;22303;-76
2024/03/08 08:40:38;;;;;;;23.55;8.57;;;5.10;99.90;;;;;;5000434;28;20108;-75
2024/03/08 08:43:04;;;;;;;19.67;8.35;;;5.10;99.90;;;;;;4998787;28;20412;-75
2024/03/08 08:45:31;;;;;;;18.38;9.23;;;5.20;99.90;;;;;;5001846;28;20022;-75
2024/03/08 08:47:58;;;;;;;26.30;9.85;;;5.20;99.90;;;;;;4998503;28;20128;-75
2024/03/08 08:50:24;;;;;;;22.13;9.32;;;5.30;99.90;;;;;;4997974;28;20033;-76
2024/03/08 08:52:50;;;;;;;24.10;9.27;;;5.30;99.90;;;;;;4998853;28;20099;-75
2024/03/08 08:55:18;;;;;;;21.42;7.90;;;5.40;99.90;;;;;;4993326;28;20057;-75
2024/03/08 08:57:44;;;;;;;20.42;9.40;;;5.40;99.90;;;;;;5006529;28;20079;-74
2024/03/08 09:00:15;;;;;;;22.42;9.95;;;5.50;99.90;;;;;;4996350;28;20033;-77
2024/03/08 09:02:41;;;;;;;18.60;9.02;;;5.50;99.90;;;;;;4999593;28;20124;-75
2024/03/08 09:05:11;;;;;;;20.55;9.00;;;5.60;99.90;;;;;;5002301;28;20047;-78
2024/03/08 09:07:37;;;;;;;18.13;8.47;;;5.70;99.90;;;;;;5026234;28;20849;-75
2024/03/08 09:10:03;;;;;;;20.42;8.73;;;5.80;99.90;;;;;;5016994;28;20039;-75
2024/03/08 09:12:29;;;;;;;19.58;8.55;;;5.80;99.90;;;;;;5018764;28;20034;-74
2024/03/08 09:14:55;;;;;;;20.83;8.90;;;6.00;99.90;;;;;;5017538;28;20042;-75
2024/03/08 09:17:20;;;;;;;21.17;8.85;;;6.10;99.90;;;;;;5002541;28;20034;-77
2024/03/08 09:19:49;;;;;;;16.08;8.35;;;6.10;99.90;;;;;;5021666;28;20149;-75
2024/03/08 09:22:15;;;;;;;17.63;8.23;;;6.10;99.90;;;;;;4999902;28;20044;-74
2024/03/08 09:24:43;;;;;;;20.92;8.77;;;6.10;99.90;;;;;;5000726;28;20046;-77
2024/03/08 09:27:09;;;;;;;21.45;8.75;;;6.20;99.90;;;;;;4995263;28;20064;-75
2024/03/08 09:29:35;;;;;;;20.63;9.00;;;6.30;99.90;;;;;;5021116;28;20092;-75
2024/03/08 09:32:01;;;;;;;17.00;7.82;;;6.40;99.90;;;;;;4999776;28;20495;-75
2024/03/08 09:34:26;;;;;;;16.52;6.97;;;6.50;99.90;;;;;;5003814;28;20793;-74
2024/03/08 09:36:52;;;;;;;29.95;9.90;;;6.50;99.90;;;;;;5003889;28;20169;-74
2024/03/08 09:39:20;;;;;;;17.85;7.40;;;6.60;99.90;;;;;;5024341;28;20033;-75
2024/03/08 09:41:49;;;;;;;17.00;8.05;;;6.60;99.90;;;;;;5019442;28;20040;-75
2024/03/08 09:44:15;;;;;;;21.02;9.43;;;6.60;99.90;;;;;;5008632;28;20036;-74
2024/03/08 09:46:42;;;;;;;21.70;9.50;;;6.60;99.90;;;;;;5001816;28;20038;-76
2024/03/08 09:49:08;;;;;;;18.13;8.35;;;6.60;99.90;;;;;;5010550;28;20098;-75
2024/03/08 09:51:35;;;;;;;19.27;8.23;;;6.70;99.90;;;;;;5006012;28;20041;-75
2024/03/08 09:54:04;;;;;;;18.98;9.48;;;6.80;99.90;;;;;;5008956;28;20531;-75
2024/03/08 09:56:32;;;;;;;20.48;9.32;;;6.90;99.90;;;;;;5000639;28;20031;-75
2024/03/08 10:01:44;;;;;;;18.30;8.23;;;7.00;99.90;;;;;;5015382;28;20056;-78
2024/03/08 10:04:10;;;;;;;21.80;9.35;;;6.90;99.90;;;;;;5013049;28;20411;-76
2024/03/08 10:06:36;;;;;;;15.38;7.65;;;6.90;99.90;;;;;;4998411;28;20044;-76
2024/03/08 10:09:02;;;;;;;19.23;8.82;;;7.00;99.90;;;;;;5013260;28;20058;-76
2024/03/08 10:11:28;;;;;;;17.02;7.60;;;7.00;99.90;;;;;;4993575;28;20029;-75
2024/03/08 10:13:54;;;;;;;19.10;7.90;;;7.10;99.90;;;;;;5006869;28;20048;-75
2024/03/08 10:16:20;;;;;;;18.33;7.90;;;7.10;99.90;;;;;;5008698;28;20035;-76
2024/03/08 10:18:46;;;;;;;17.05;7.55;;;7.20;99.90;;;;;;5010634;28;20030;-73
2024/03/08 10:21:13;;;;;;;18.13;8.38;;;7.30;99.90;;;;;;4992043;28;20057;-76
2024/03/08 10:23:39;;;;;;;18.75;8.25;;;7.30;99.90;;;;;;5015608;28;20037;-74
2024/03/08 10:26:16;;;;;;;16.67;7.68;;;7.40;99.90;;;;;;5015890;28;20042;-76
2024/03/08 10:28:46;;;;;;;17.95;8.30;;;7.50;99.90;;;;;;5006589;28;20056;-76
2024/03/08 10:31:12;;;;;;;19.15;7.32;;;7.60;99.90;;;;;;5013532;28;20061;-77
2024/03/08 10:33:41;;;;;;;14.18;6.63;;;7.60;99.90;;;;;;4991266;28;20174;-77
2024/03/08 10:36:10;;;;;;;17.08;7.57;;;7.60;99.90;;;;;;5014579;28;20037;-76
2024/03/08 10:38:41;;;;;;;19.58;9.07;;;7.70;99.90;;;;;;5019387;28;20052;-75
2024/03/08 10:41:09;;;;;;;18.38;7.18;;;7.80;99.90;;;;;;5015604;28;20666;-76
2024/03/08 10:44:07;;;;;;;17.33;7.57;;;7.90;99.90;;;;;;5012843;28;20502;-76
2024/03/08 10:46:48;;;;;;;15.27;7.38;;;7.90;99.90;;;;;;5022451;28;20553;-77
2024/03/08 10:49:18;;;;;;;14.60;6.88;;;7.90;99.90;;;;;;5005329;28;20121;-76
2024/03/08 10:51:45;;;;;;;15.60;6.93;;;8.00;99.90;;;;;;5009426;28;20046;-78
2024/03/08 10:54:15;;;;;;;16.48;7.47;;;8.10;99.90;;;;;;5004232;28;20054;-76
2024/03/08 10:56:41;;;;;;;16.33;7.20;;;8.10;99.90;;;;;;4996163;28;20034;-75
2024/03/08 10:59:08;;;;;;;21.35;8.15;;;8.20;99.90;;;;;;4996667;28;20057;-75
2024/03/08 11:01:34;;;;;;;16.40;7.53;;;8.20;99.90;;;;;;5012540;28;20042;-77
2024/03/08 11:04:04;;;;;;;22.02;7.22;;;8.30;99.90;;;;;;5010353;28;20044;-75
2024/03/08 11:06:41;;;;;;;15.48;7.38;;;8.40;99.90;;;;;;5014900;28;20034;-74
2024/03/08 11:09:30;;;;;;;18.25;6.95;;;8.40;99.90;;;;;;5016841;28;20033;-76
2024/03/08 11:12:29;;;;;;;18.38;5.97;;;8.50;99.90;;;;;;4999718;28;20144;-75
2024/03/08 11:14:58;;;;;;;18.45;7.45;;;8.60;99.90;;;;;;5013738;28;20064;-75
2024/03/08 11:17:30;;;;;;;14.88;6.75;;;8.70;99.90;;;;;;4999125;28;20038;-76
2024/03/08 11:19:58;;;;;;;14.30;6.60;;;8.80;99.90;;;;;;5014064;28;20041;-74
2024/03/08 11:22:31;;;;;;;15.18;6.30;;;8.80;99.90;;;;;;4999869;28;20491;-75
2024/03/08 11:25:09;;;;;;;13.20;5.95;;;8.90;99.90;;;;;;5020968;28;20048;-76
2024/03/08 11:27:38;;;;;;;12.38;5.60;;;8.90;99.90;;;;;;4997441;28;20537;-80
2024/03/08 11:30:11;;;;;;;14.75;6.55;;;8.90;99.90;;;;;;4999791;28;20037;-75
2024/03/08 11:32:38;;;;;;;14.95;5.93;;;8.90;99.90;;;;;;5020516;28;20502;-77
2024/03/08 11:35:08;;;;;;;11.88;6.03;;;8.90;99.90;;;;;;4996520;28;20033;-75
2024/03/08 11:37:37;;;;;;;;;;;8.90;99.90;;;;;;5001936;28;20041;-76
2024/03/08 11:40:14;;;;;;;11.43;5.80;;;8.90;99.80;;;;;;5019267;28;19921;-74
2024/03/08 11:42:39;;;;;;;14.15;5.47;;;9.00;99.80;;;;;;5005565;28;20062;-77
2024/03/08 11:45:11;;;;;;;16.38;5.35;;;9.00;99.90;;;;;;5009234;28;20049;-73
2024/03/08 11:47:39;;;;;;;12.00;4.80;;;9.10;99.90;;;;;;5008332;28;20065;-73
2024/03/08 11:50:10;;;;;;;12.25;5.68;;;9.10;99.90;;;;;;4993484;28;20030;-73
2024/03/08 11:52:36;;;;;;;10.63;5.50;;;9.20;99.90;;;;;;5008714;28;20125;-72
2024/03/08 11:55:02;;;;;;;13.32;5.70;;;9.30;99.90;;;;;;5013859;28;20117;-73
2024/03/08 11:57:29;;;;;;;11.32;5.32;;;9.30;99.90;;;;;;5018270;28;20045;-73
2024/03/08 12:00:05;;;;;;;12.77;5.93;;;9.30;99.60;;;;;;5010765;28;20030;-76
2024/03/08 12:02:31;;;;;;;17.33;6.28;;;9.40;99.80;;;;;;5018089;28;20034;-77
2024/03/08 12:04:59;;;;;;;11.95;5.47;;;9.40;99.90;;;;;;4997374;28;20033;-76
2024/03/08 12:07:27;;;;;;;14.45;5.13;;;9.50;99.90;;;;;;4998645;28;20520;-77
2024/03/08 12:10:18;;;;;;;12.65;5.35;;;9.60;99.20;;;;;;4996955;28;20430;-76
2024/03/08 12:12:51;;;;;;;12.90;5.65;;;9.70;98.70;;;;;;5019801;28;20060;-76
2024/03/08 12:15:17;;;;;;;14.68;5.18;;;9.70;98.60;;;;;;4997530;28;20490;-77
2024/03/08 12:17:45;;;;;;;9.70;4.68;;;9.70;98.70;;;;;;5015031;28;20026;-76
2024/03/08 12:20:23;;;;;;;9.68;4.40;;;9.80;98.60;;;;;;5015933;28;20030;-75
2024/03/08 12:22:52;;;;;;;13.38;4.97;;;9.80;98.70;;;;;;4997375;28;20041;-76
2024/03/08 12:25:19;;;;;;;18.90;5.03;;;9.80;99.10;;;;;;5018385;28;20033;-75
2024/03/08 12:27:45;;;;;;;13.77;5.57;;;9.90;98.70;;;;;;5016700;28;20033;-74
2024/03/08 12:30:21;;;;;;;11.75;6.05;;;9.80;98.90;;;;;;4993812;28;20024;-72
2024/03/08 12:32:54;;;;;;;14.65;5.15;;;9.80;98.70;;;;;;5019884;28;20038;-74
2024/03/08 12:35:22;;;;;;;10.18;5.22;;;9.80;99.50;;;;;;5031660;28;20460;-76
2024/03/08 12:37:58;;;;;;;12.55;5.43;;;9.80;99.00;;;;;;5011447;28;20525;-75
2024/03/08 12:40:34;;;;;;;13.10;5.80;;;9.80;99.40;;;;;;5017206;28;20033;-74
2024/03/08 12:43:01;;;;;;;11.88;5.43;;;9.80;99.50;;;;;;5016619;28;20407;-74
2024/03/08 12:45:27;;;;;;;15.00;6.70;;;9.80;99.10;;;;;;5003494;28;20056;-74
2024/03/08 12:47:53;;;;;;;11.63;5.78;;;9.80;99.50;;;;;;5001484;28;20106;-73
2024/03/08 12:50:20;;;;;;;10.98;5.72;;;9.80;99.50;;;;;;5001231;28;20041;-75
2024/03/08 12:52:46;;;;;;;16.30;7.63;;;9.80;99.50;;;;;;4999067;28;20072;-75